createdAt,value
2023-03-03T00:04:11.785Z,99506.97
2023-03-03T00:09:14.763Z,99508.72
2023-03-03T00:14:23.212Z,99505.41
2023-03-03T00:19:27.456Z,99519.28
2023-03-03T00:24:38.401Z,99508.34
2023-03-03T00:29:46.968Z,99512.63
2023-03-03T00:34:51.828Z,99514.59
2023-03-03T00:39:55.308Z,99516.41
2023-03-03T00:44:59.336Z,99516.13
2023-03-03T00:50:26.933Z,99522.94
2023-03-03T00:55:30.675Z,99517.56
2023-03-03T01:00:34.434Z,99513.13
2023-03-03T01:05:40.058Z,99520.84
2023-03-03T01:10:47.025Z,99513.69
2023-03-03T01:15:50.050Z,99537.16
2023-03-03T01:20:54.411Z,99528.75
2023-03-03T01:25:57.441Z,99526.94
2023-03-03T01:31:02.295Z,99541.63
2023-03-03T01:36:07.947Z,99539.00
2023-03-03T01:41:10.875Z,99537.25
2023-03-03T01:46:42.120Z,99537.88
2023-03-03T01:51:51.757Z,99536.22
2023-03-03T01:56:59.698Z,99522.56
2023-03-03T02:02:02.718Z,99508.75
2023-03-03T02:07:11.102Z,99516.47
2023-03-03T02:12:18.000Z,99501.69
2023-03-03T02:17:21.282Z,99505.66
2023-03-03T02:22:40.247Z,99500.97
2023-03-03T02:27:44.697Z,99507.22
2023-03-03T02:32:48.549Z,99514.09
2023-03-03T02:37:51.586Z,99511.09
2023-03-03T02:42:59.496Z,99512.84
2023-03-03T02:48:02.522Z,99507.78
2023-03-03T02:53:05.501Z,99518.72
2023-03-03T02:58:10.730Z,99522.34
2023-03-03T03:03:13.719Z,99507.38
2023-03-03T03:08:16.823Z,99508.06
2023-03-03T03:13:21.210Z,99536.69
2023-03-03T03:18:25.205Z,99532.84
2023-03-03T03:23:30.629Z,99533.91
2023-03-03T03:28:36.006Z,99528.00
2023-03-03T03:33:38.947Z,99524.75
2023-03-03T03:38:43.200Z,99536.44
2023-03-03T03:43:48.632Z,99535.75
2023-03-03T03:48:52.168Z,99524.13
2023-03-03T03:53:57.642Z,99512.38
2023-03-03T03:59:01.955Z,99509.88
2023-03-03T04:04:05.384Z,99533.44
2023-03-03T04:09:08.927Z,99554.47
2023-03-03T04:14:13.323Z,99545.34
2023-03-03T04:19:16.465Z,99546.28
2023-03-03T04:24:20.436Z,99558.69
2023-03-03T04:29:27.827Z,99548.84
2023-03-03T04:34:31.461Z,99556.00
2023-03-03T04:39:34.499Z,99569.53
2023-03-03T04:44:39.174Z,99566.84
2023-03-03T04:49:42.847Z,99563.72
2023-03-03T04:54:46.152Z,99575.63
2023-03-03T04:59:51.530Z,99571.16
2023-03-03T05:04:55.285Z,99573.16
2023-03-03T05:09:58.210Z,99573.03
2023-03-03T05:15:02.750Z,99578.66
2023-03-03T05:20:08.443Z,99579.09
2023-03-03T05:25:12.767Z,99583.09
2023-03-03T05:30:17.284Z,99568.78
2023-03-03T05:35:20.761Z,99569.38
2023-03-03T05:40:23.885Z,99575.97
2023-03-03T05:45:28.236Z,99548.75
2023-03-03T05:50:31.371Z,99576.31
2023-03-03T05:55:34.468Z,99581.19
2023-03-03T06:00:39.027Z,99576.88
2023-03-03T06:05:41.981Z,99572.03
2023-03-03T06:10:45.138Z,99567.75
2023-03-03T06:15:51.835Z,99579.25
2023-03-03T06:20:55.212Z,99563.25
2023-03-03T06:25:58.177Z,99559.91
2023-03-03T06:31:02.631Z,99561.81
2023-03-03T06:36:05.999Z,99567.59
2023-03-03T06:41:08.997Z,99575.59
2023-03-03T06:46:13.387Z,99593.66
2023-03-03T06:51:24.568Z,99612.19
2023-03-03T06:56:28.320Z,99608.25
2023-03-03T07:01:37.944Z,99611.13
2023-03-03T07:06:40.912Z,99604.53
2023-03-03T07:11:46.250Z,99620.44
2023-03-03T07:16:57.874Z,99623.50
2023-03-03T07:22:03.294Z,99610.31
2023-03-03T07:27:13.605Z,99630.13
2023-03-03T07:32:39.167Z,99617.59
2023-03-03T07:37:43.918Z,99624.81
2023-03-03T07:42:46.889Z,99647.72
2023-03-03T07:48:21.286Z,99658.59
2023-03-03T07:53:29.056Z,99663.00
2023-03-03T07:58:38.549Z,99657.69
2023-03-03T08:03:44.896Z,99648.34
2023-03-03T08:08:47.798Z,99645.97
2023-03-03T08:13:50.673Z,99638.81
2023-03-03T08:18:55.414Z,99643.09
2023-03-03T08:23:58.349Z,99661.69
2023-03-03T08:29:01.277Z,99635.88
2023-03-03T08:34:05.624Z,99641.47
2023-03-03T08:39:09.390Z,99644.66
2023-03-03T08:44:12.660Z,99641.63
2023-03-03T08:49:17.084Z,99643.03
2023-03-03T08:54:20.103Z,99652.03
2023-03-03T08:59:23.264Z,99656.03
2023-03-03T09:04:27.626Z,99662.84
2023-03-03T09:09:30.670Z,99656.22
2023-03-03T09:14:33.545Z,99656.50
2023-03-03T09:19:38.532Z,99675.66
2023-03-03T09:24:43.815Z,99674.16
2023-03-03T09:29:47.057Z,99675.78
2023-03-03T09:34:52.343Z,99686.59
2023-03-03T09:39:57.485Z,99680.84
2023-03-03T09:45:37.245Z,99693.06
2023-03-03T09:50:54.513Z,99696.31
2023-03-03T09:56:04.513Z,99704.25
2023-03-03T10:01:26.086Z,99711.84
2023-03-03T10:06:37.120Z,99716.06
2023-03-03T10:11:51.968Z,99700.91
2023-03-03T10:17:17.109Z,99692.56
2023-03-03T10:22:28.615Z,99701.13
2023-03-03T10:27:56.528Z,99712.72
2023-03-03T10:33:03.381Z,99716.94
2023-03-03T10:38:45.741Z,99715.59
2023-03-03T10:44:01.914Z,99708.63
2023-03-03T10:49:34.758Z,99711.31
2023-03-03T10:55:07.444Z,99707.88
2023-03-03T11:00:22.649Z,99711.75
2023-03-03T11:05:37.984Z,99712.47
2023-03-03T11:10:53.853Z,99712.50
2023-03-03T11:16:14.866Z,99704.06
2023-03-03T11:21:25.941Z,99714.81
2023-03-03T11:26:46.359Z,99700.59
2023-03-03T11:31:55.731Z,99695.13
2023-03-03T11:37:08.582Z,99691.88
2023-03-03T11:42:23.873Z,99691.56
2023-03-03T11:47:32.143Z,99683.69
2023-03-03T11:52:45.581Z,99689.91
2023-03-03T11:57:53.744Z,99682.25
2023-03-03T12:03:15.558Z,99679.66
2023-03-03T12:08:30.298Z,99683.59
2023-03-03T12:13:48.139Z,99668.25
2023-03-03T12:19:04.777Z,99671.50
2023-03-03T12:24:29.145Z,99682.25
2023-03-03T12:29:46.803Z,99670.47
2023-03-03T12:34:55.363Z,99667.63
2023-03-03T12:40:07.422Z,99661.19
2023-03-03T12:45:25.351Z,99655.53
2023-03-03T12:50:48.133Z,99646.56
2023-03-03T12:55:54.794Z,99647.91
2023-03-03T13:01:08.361Z,99640.19
2023-03-03T13:06:20.851Z,99636.78
2023-03-03T13:11:43.640Z,99643.31
2023-03-03T13:17:00.336Z,99641.31
2023-03-03T13:22:12.796Z,99636.50
2023-03-03T13:27:20.754Z,99645.25
2023-03-03T13:32:37.493Z,99643.59
2023-03-03T13:37:45.893Z,99641.53
2023-03-03T13:42:54.696Z,99638.13
2023-03-03T13:48:09.726Z,99630.09
2023-03-03T13:53:34.429Z,99623.25
2023-03-03T13:58:50.694Z,99627.31
2023-03-03T14:04:06.406Z,99623.31
2023-03-03T14:09:26.983Z,99619.88
2023-03-03T14:14:45.540Z,99602.63
2023-03-03T14:20:03.473Z,99610.53
2023-03-03T14:25:09.953Z,99609.59
2023-03-03T14:30:34.053Z,99600.59
2023-03-03T14:35:41.682Z,99593.81
2023-03-03T14:40:46.344Z,99590.22
2023-03-03T14:45:49.409Z,99588.34
2023-03-03T14:50:58.297Z,99581.25
2023-03-03T14:56:18.232Z,99586.44
2023-03-03T15:01:32.764Z,99577.03
2023-03-03T15:06:42.070Z,99580.34
2023-03-03T15:11:48.340Z,99586.47
2023-03-03T15:16:51.956Z,99578.28
2023-03-03T15:22:02.543Z,99584.25
2023-03-03T15:27:12.009Z,99587.22
2023-03-03T15:32:22.527Z,99573.38
2023-03-03T15:37:42.485Z,99575.72
2023-03-03T15:42:50.375Z,99572.72
2023-03-03T15:48:08.333Z,99584.03
2023-03-03T15:53:35.737Z,99582.13
2023-03-03T15:59:00.206Z,99573.72
2023-03-03T16:04:07.929Z,99588.59
2023-03-03T16:09:25.840Z,99585.13
2023-03-03T16:14:45.990Z,99587.78
2023-03-03T16:19:57.008Z,99586.88
2023-03-03T16:25:30.561Z,99582.69
2023-03-03T16:30:38.937Z,99591.69
2023-03-03T16:35:50.406Z,99589.31
2023-03-03T16:40:57.796Z,99595.28
2023-03-03T16:46:06.072Z,99595.53
2023-03-03T16:51:18.994Z,99591.47
2023-03-03T16:56:29.728Z,99585.91
2023-03-03T17:01:43.178Z,99585.78
2023-03-03T17:06:51.225Z,99584.00
2023-03-03T17:12:04.000Z,99593.09
2023-03-03T17:17:15.914Z,99586.06
2023-03-03T17:22:27.662Z,99588.47
2023-03-03T17:27:44.449Z,99594.97
2023-03-03T17:33:15.090Z,99585.97
2023-03-03T17:38:28.905Z,99599.44
2023-03-03T17:43:40.351Z,99593.50
2023-03-03T17:49:11.292Z,99602.88
2023-03-03T17:54:26.153Z,99601.09
2023-03-03T17:59:43.719Z,99595.22
2023-03-03T18:05:06.655Z,99606.25
2023-03-03T18:10:41.387Z,99607.88
2023-03-03T18:16:12.120Z,99602.97
2023-03-03T18:21:17.740Z,99609.06
2023-03-03T18:26:36.047Z,99603.53
2023-03-03T18:31:51.280Z,99605.31
2023-03-03T18:36:55.537Z,99606.25
2023-03-03T18:42:12.230Z,99605.38
2023-03-03T18:47:17.534Z,99603.94
2023-03-03T18:52:27.693Z,99609.50
2023-03-03T18:57:30.786Z,99619.81
2023-03-03T19:02:46.316Z,99610.06
2023-03-03T19:07:58.045Z,99606.53
2023-03-03T19:13:01.126Z,99607.09
2023-03-03T19:18:14.671Z,99607.91
2023-03-03T19:23:20.471Z,99607.50
2023-03-03T19:28:38.415Z,99609.78
2023-03-03T19:33:54.587Z,99604.06
2023-03-03T19:39:22.678Z,99605.22
2023-03-03T19:44:40.957Z,99595.56
2023-03-03T19:50:07.768Z,99601.69
2023-03-03T19:55:25.715Z,99601.84
2023-03-03T20:00:36.155Z,99600.59
2023-03-03T20:05:47.015Z,99601.41
2023-03-03T20:10:58.300Z,99596.81
2023-03-03T20:16:11.134Z,99605.53
2023-03-03T20:21:27.653Z,99598.69
2023-03-03T20:26:35.233Z,99595.31
2023-03-03T20:31:47.057Z,99593.00
2023-03-03T20:37:01.289Z,99588.66
2023-03-03T20:42:16.102Z,99586.31
2023-03-03T20:47:31.908Z,99581.31
2023-03-03T20:52:43.274Z,99579.66
2023-03-03T20:57:54.830Z,99579.13
2023-03-03T21:03:10.304Z,99571.81
2023-03-03T21:08:14.578Z,99568.81
2023-03-03T21:13:29.474Z,99566.34
2023-03-03T21:18:32.420Z,99560.13
2023-03-03T21:23:36.729Z,99547.09
2023-03-03T21:28:39.696Z,99552.78
2023-03-03T21:33:48.791Z,99541.78
2023-03-03T21:38:54.689Z,99544.09
2023-03-03T21:43:57.607Z,99539.75
2023-03-03T21:49:00.535Z,99535.94
2023-03-03T21:54:05.015Z,99532.81
2023-03-03T21:59:08.040Z,99539.22
2023-03-03T22:04:11.020Z,99535.25
2023-03-03T22:09:15.601Z,99538.53
2023-03-03T22:14:18.543Z,99529.16
2023-03-03T22:19:21.530Z,99529.84
2023-03-03T22:24:25.771Z,99537.84
2023-03-03T22:29:29.230Z,99534.84
2023-03-03T22:34:32.110Z,99527.38
2023-03-03T22:39:36.362Z,99516.63
2023-03-03T22:44:39.901Z,99509.84
2023-03-03T22:49:42.777Z,99508.78
2023-03-03T22:54:47.045Z,99510.94
2023-03-03T22:59:49.949Z,99504.28
2023-03-03T23:04:58.192Z,99501.72
2023-03-03T23:10:03.367Z,99499.28
2023-03-03T23:15:13.243Z,99497.09
2023-03-03T23:20:18.682Z,99481.59
2023-03-03T23:25:24.020Z,99472.66
2023-03-03T23:30:27.442Z,99476.56
2023-03-03T23:35:30.524Z,99469.66
2023-03-03T23:40:34.879Z,99465.31
2023-03-03T23:45:37.723Z,99465.72
2023-03-03T23:50:40.663Z,99469.66
2023-03-03T23:55:45.638Z,99471.56
